createdAt,value
2023-03-30T00:01:17.387Z,1.40
2023-03-30T00:03:48.304Z,1.70
2023-03-30T00:06:22.123Z,1.67
2023-03-30T00:08:53.558Z,1.67
2023-03-30T00:11:23.566Z,1.90
2023-03-30T00:13:53.627Z,1.50
2023-03-30T00:16:23.231Z,1.70
2023-03-30T00:18:51.892Z,1.50
2023-03-30T00:21:21.038Z,1.40
2023-03-30T00:23:50.192Z,1.50
2023-03-30T00:26:18.951Z,1.40
2023-03-30T00:28:49.082Z,1.80
2023-03-30T00:31:18.847Z,1.30
2023-03-30T00:33:47.866Z,1.40
2023-03-30T00:36:17.369Z,1.80
2023-03-30T00:38:48.436Z,1.30
2023-03-30T00:41:17.890Z,1.50
2023-03-30T00:44:00.171Z,1.33
2023-03-30T00:46:32.082Z,1.13
2023-03-30T00:49:05.429Z,1.20
2023-03-30T00:51:36.106Z,1.30
2023-03-30T00:54:08.956Z,1.53
2023-03-30T00:56:37.449Z,1.33
2023-03-30T00:59:06.295Z,1.20
2023-03-30T01:01:39.524Z,1.03
2023-03-30T01:04:09.935Z,1.10
2023-03-30T01:06:40.869Z,1.90
2023-03-30T01:09:10.087Z,1.20
2023-03-30T01:11:38.703Z,1.10
2023-03-30T01:14:10.304Z,1.10
2023-03-30T01:16:47.592Z,1.23
2023-03-30T01:19:56.903Z,1.00
2023-03-30T01:22:53.658Z,1.40
2023-03-30T01:25:45.150Z,1.93
2023-03-30T01:28:30.030Z,1.30
2023-03-30T01:31:27.335Z,1.17
2023-03-30T01:34:28.150Z,0.87
2023-03-30T01:37:30.180Z,1.33
2023-03-30T01:40:09.531Z,1.30
2023-03-30T01:42:46.358Z,1.10
2023-03-30T01:45:20.800Z,1.50
2023-03-30T01:47:54.378Z,0.90
2023-03-30T01:50:27.787Z,1.50
2023-03-30T01:53:00.102Z,1.13
2023-03-30T01:55:36.848Z,1.73
2023-03-30T01:58:11.120Z,1.30
2023-03-30T02:00:44.652Z,1.30
2023-03-30T02:03:17.294Z,1.20
2023-03-30T02:05:50.388Z,1.17
2023-03-30T02:08:24.254Z,1.10
2023-03-30T02:10:56.519Z,1.00
2023-03-30T02:13:26.741Z,1.47
2023-03-30T02:16:00.744Z,1.00
2023-03-30T02:18:29.188Z,0.90
2023-03-30T02:20:59.051Z,1.20
2023-03-30T02:23:33.798Z,1.17
2023-03-30T02:26:04.715Z,1.20
2023-03-30T02:28:33.904Z,1.10
2023-03-30T02:31:02.745Z,1.20
2023-03-30T02:33:45.107Z,1.40
2023-03-30T02:36:27.443Z,0.90
2023-03-30T02:39:05.348Z,1.30
2023-03-30T02:42:00.680Z,1.00
2023-03-30T02:44:38.271Z,1.10
2023-03-30T02:47:13.059Z,0.97
2023-03-30T02:50:00.109Z,1.20
2023-03-30T02:52:43.197Z,1.43
2023-03-30T02:55:17.855Z,1.30
2023-03-30T02:58:03.764Z,1.00
2023-03-30T03:01:06.732Z,1.10
2023-03-30T03:03:49.707Z,1.60
2023-03-30T03:06:20.671Z,1.47
2023-03-30T03:08:56.754Z,1.30
2023-03-30T03:11:30.533Z,1.10
2023-03-30T03:14:00.945Z,0.80
2023-03-30T03:16:32.445Z,0.90
2023-03-30T03:19:10.862Z,1.20
2023-03-30T03:21:41.003Z,1.20
2023-03-30T03:24:13.431Z,0.90
2023-03-30T03:27:00.366Z,0.90
2023-03-30T03:29:34.150Z,0.87
2023-03-30T03:32:02.538Z,0.90
2023-03-30T03:34:39.666Z,0.83
2023-03-30T03:37:09.008Z,0.97
2023-03-30T03:39:40.351Z,1.20
2023-03-30T03:42:11.838Z,0.80
2023-03-30T03:45:02.314Z,1.20
2023-03-30T03:47:33.192Z,1.10
2023-03-30T03:50:04.073Z,1.10
2023-03-30T03:52:32.611Z,1.10
2023-03-30T03:55:01.024Z,1.00
2023-03-30T03:57:29.948Z,0.80
2023-03-30T03:59:59.918Z,0.90
2023-03-30T04:02:30.204Z,1.00
2023-03-30T04:04:58.833Z,1.10
2023-03-30T04:07:27.217Z,0.93
2023-03-30T04:09:55.558Z,1.53
2023-03-30T04:12:42.656Z,1.10
2023-03-30T04:15:34.388Z,1.30
2023-03-30T04:18:35.289Z,2.13
2023-03-30T04:21:33.585Z,0.90
2023-03-30T04:24:31.821Z,1.13
2023-03-30T04:27:25.877Z,1.20
2023-03-30T04:30:22.561Z,1.20
2023-03-30T04:33:09.958Z,1.80
2023-03-30T04:36:13.168Z,1.97
2023-03-30T04:39:01.620Z,2.23
2023-03-30T04:42:14.227Z,1.93
2023-03-30T04:45:01.311Z,2.13
2023-03-30T04:47:51.804Z,1.30
2023-03-30T04:50:26.199Z,2.23
2023-03-30T04:53:16.135Z,2.00
2023-03-30T04:56:04.271Z,2.70
2023-03-30T04:58:57.124Z,2.10
2023-03-30T05:01:48.668Z,2.30
2023-03-30T05:04:35.765Z,2.47
2023-03-30T05:07:22.929Z,1.10
2023-03-30T05:10:05.973Z,2.17
2023-03-30T05:12:55.653Z,2.00
2023-03-30T05:15:57.863Z,1.30
2023-03-30T05:18:44.834Z,2.23
2023-03-30T05:21:36.262Z,2.20
2023-03-30T05:24:23.404Z,1.90
2023-03-30T05:27:17.075Z,2.20
2023-03-30T05:29:57.187Z,2.10
2023-03-30T05:32:52.392Z,1.60
2023-03-30T05:35:47.146Z,1.80
2023-03-30T05:38:41.838Z,2.30
2023-03-30T05:41:48.503Z,1.70
2023-03-30T05:44:38.904Z,1.93
2023-03-30T05:47:35.612Z,1.53
2023-03-30T05:50:09.404Z,3.40
2023-03-30T05:52:50.494Z,2.10
2023-03-30T05:55:44.416Z,1.87
2023-03-30T05:58:31.690Z,1.80
2023-03-30T06:01:16.940Z,3.37
2023-03-30T06:03:49.065Z,3.07
2023-03-30T06:06:17.989Z,1.90
2023-03-30T06:08:49.731Z,2.03
2023-03-30T06:11:21.910Z,2.07
2023-03-30T06:13:59.264Z,3.90
2023-03-30T06:16:32.009Z,2.17
2023-03-30T06:19:01.898Z,3.93
2023-03-30T06:21:31.014Z,3.00
2023-03-30T06:24:28.564Z,2.30
2023-03-30T06:26:57.602Z,1.90
2023-03-30T06:29:26.176Z,2.00
2023-03-30T06:31:56.200Z,1.80
2023-03-30T06:34:57.342Z,2.40
2023-03-30T06:37:27.687Z,1.90
2023-03-30T06:39:56.385Z,1.50
2023-03-30T06:42:27.521Z,2.40
2023-03-30T06:45:06.800Z,2.17
2023-03-30T06:47:36.742Z,9.10
2023-03-30T06:50:06.683Z,3.37
2023-03-30T06:52:53.980Z,2.23
2023-03-30T06:55:24.452Z,3.00
2023-03-30T06:57:54.083Z,2.07
2023-03-30T07:00:24.491Z,1.80
2023-03-30T07:03:14.321Z,2.17
2023-03-30T07:05:50.864Z,1.47
2023-03-30T07:08:27.735Z,2.00
2023-03-30T07:10:57.569Z,1.47
2023-03-30T07:13:30.986Z,1.70
2023-03-30T07:15:59.807Z,1.90
2023-03-30T07:18:29.640Z,2.00
2023-03-30T07:20:59.433Z,1.90
2023-03-30T07:23:32.439Z,3.00
2023-03-30T07:26:01.146Z,1.60
2023-03-30T07:28:49.777Z,1.90
2023-03-30T07:31:20.308Z,1.93
2023-03-30T07:33:51.475Z,1.83
2023-03-30T07:36:24.643Z,1.77
2023-03-30T07:38:54.491Z,1.60
2023-03-30T07:41:23.385Z,1.60
2023-03-30T07:43:55.702Z,1.60
2023-03-30T07:46:24.255Z,1.63
2023-03-30T07:48:57.785Z,2.17
2023-03-30T07:51:28.466Z,1.13
2023-03-30T07:54:10.553Z,1.27
2023-03-30T07:56:52.932Z,1.33
2023-03-30T07:59:23.280Z,0.90
2023-03-30T08:01:54.621Z,1.50
2023-03-30T08:04:47.698Z,3.10
2023-03-30T08:07:21.477Z,1.37
2023-03-30T08:09:54.882Z,3.00
2023-03-30T08:12:23.282Z,1.60
2023-03-30T08:14:51.696Z,1.43
2023-03-30T08:17:21.327Z,1.67
2023-03-30T08:19:51.226Z,1.50
2023-03-30T08:22:19.654Z,1.50
2023-03-30T08:24:48.474Z,2.60
2023-03-30T08:27:17.219Z,1.60
2023-03-30T08:29:46.115Z,1.80
2023-03-30T08:32:15.404Z,1.60
2023-03-30T08:34:45.239Z,1.10
2023-03-30T08:37:15.649Z,1.27
2023-03-30T08:39:44.802Z,1.20
2023-03-30T08:42:37.126Z,1.93
2023-03-30T08:45:09.562Z,3.23
2023-03-30T08:47:42.207Z,1.37
2023-03-30T08:50:16.115Z,1.30
2023-03-30T08:52:47.140Z,5.20
2023-03-30T08:55:25.440Z,1.33
2023-03-30T08:57:59.742Z,1.80
2023-03-30T09:00:37.201Z,1.63
2023-03-30T09:03:12.766Z,1.47
2023-03-30T09:05:47.447Z,1.40
2023-03-30T09:08:21.126Z,1.27
2023-03-30T09:10:58.179Z,1.33
2023-03-30T09:13:31.544Z,3.03
2023-03-30T09:16:08.410Z,1.83
2023-03-30T09:18:39.759Z,1.40
2023-03-30T09:21:10.693Z,1.40
2023-03-30T09:23:47.460Z,1.27
2023-03-30T09:26:26.178Z,1.43
2023-03-30T09:29:03.807Z,1.60
2023-03-30T09:31:40.018Z,1.93
2023-03-30T09:34:23.705Z,2.57
2023-03-30T09:36:57.954Z,2.60
2023-03-30T09:39:31.037Z,1.07
2023-03-30T09:42:13.037Z,2.00
2023-03-30T09:44:48.333Z,1.57
2023-03-30T09:47:24.612Z,1.57
2023-03-30T09:50:00.994Z,1.87
2023-03-30T09:52:32.159Z,1.97
2023-03-30T09:55:20.085Z,2.00
2023-03-30T09:57:48.882Z,1.47
2023-03-30T10:00:27.563Z,1.20
2023-03-30T10:02:58.587Z,1.53
2023-03-30T10:05:28.623Z,1.97
2023-03-30T10:07:59.036Z,3.00
2023-03-30T10:10:35.297Z,2.23
2023-03-30T10:13:07.673Z,2.20
2023-03-30T10:15:54.324Z,1.80
2023-03-30T10:18:29.702Z,2.07
2023-03-30T10:21:03.928Z,2.20
2023-03-30T10:23:35.533Z,1.33
2023-03-30T10:26:06.002Z,1.40
2023-03-30T10:28:36.575Z,1.30
2023-03-30T10:31:09.819Z,1.40
2023-03-30T10:33:43.431Z,1.10
2023-03-30T10:36:14.878Z,1.80
2023-03-30T10:38:44.623Z,3.40
2023-03-30T10:41:17.536Z,1.40
2023-03-30T10:43:46.291Z,1.30
2023-03-30T10:46:20.402Z,2.73
2023-03-30T10:49:07.238Z,1.60
2023-03-30T10:51:46.344Z,2.07
2023-03-30T10:54:22.308Z,1.73
2023-03-30T10:56:55.836Z,1.50
2023-03-30T10:59:42.668Z,1.73
2023-03-30T11:02:45.008Z,1.80
2023-03-30T11:05:18.771Z,1.57
2023-03-30T11:07:53.545Z,1.53
2023-03-30T11:10:29.448Z,1.27
2023-03-30T11:13:03.218Z,2.00
2023-03-30T11:15:37.101Z,1.90
2023-03-30T11:18:14.381Z,1.63
2023-03-30T11:20:49.216Z,1.50
2023-03-30T11:23:26.296Z,1.60
2023-03-30T11:26:00.213Z,2.83
2023-03-30T11:28:54.082Z,1.30
2023-03-30T11:31:40.252Z,1.43
2023-03-30T11:34:17.545Z,1.33
2023-03-30T11:36:50.821Z,1.20
2023-03-30T11:39:31.616Z,1.53
2023-03-30T11:42:08.474Z,2.57
2023-03-30T11:44:38.325Z,2.90
2023-03-30T11:47:39.230Z,2.07
2023-03-30T11:50:24.750Z,2.23
2023-03-30T11:53:04.489Z,1.53
2023-03-30T11:55:48.717Z,2.00
2023-03-30T11:58:28.218Z,2.00
2023-03-30T12:01:25.948Z,1.50
2023-03-30T12:04:00.641Z,1.70
2023-03-30T12:06:31.895Z,1.73
2023-03-30T12:09:29.160Z,1.50
2023-03-30T12:12:04.710Z,2.00
2023-03-30T12:14:44.599Z,1.77
2023-03-30T12:17:28.038Z,1.50
2023-03-30T12:20:01.357Z,1.60
2023-03-30T12:22:36.621Z,1.90
2023-03-30T12:25:17.308Z,1.70
2023-03-30T12:28:12.365Z,1.70
2023-03-30T12:30:48.634Z,2.23
2023-03-30T12:33:27.755Z,1.50
2023-03-30T12:36:01.632Z,1.63
2023-03-30T12:38:39.308Z,2.90
2023-03-30T12:41:18.561Z,1.50
2023-03-30T12:44:09.115Z,1.60
2023-03-30T12:46:44.794Z,1.90
2023-03-30T12:49:24.344Z,1.37
2023-03-30T12:52:09.721Z,1.70
2023-03-30T12:55:00.535Z,1.70
2023-03-30T12:57:39.395Z,1.77
2023-03-30T13:00:41.216Z,1.47
2023-03-30T13:03:36.951Z,1.50
2023-03-30T13:06:13.369Z,1.77
2023-03-30T13:08:43.879Z,1.67
2023-03-30T13:11:17.464Z,1.40
2023-03-30T13:13:51.670Z,2.10
2023-03-30T13:16:49.879Z,1.63
2023-03-30T13:19:28.864Z,1.70
2023-03-30T13:22:05.627Z,1.47
2023-03-30T13:24:41.200Z,1.40
2023-03-30T13:27:27.229Z,1.30
2023-03-30T13:29:58.242Z,1.80
2023-03-30T13:32:37.250Z,1.30
2023-03-30T13:35:21.957Z,1.70
2023-03-30T13:38:17.147Z,1.77
2023-03-30T13:41:03.835Z,1.70
2023-03-30T13:43:50.699Z,1.60
2023-03-30T13:46:29.530Z,1.60
2023-03-30T13:49:16.191Z,1.97
2023-03-30T13:51:45.399Z,1.63
2023-03-30T13:54:18.011Z,1.63
2023-03-30T13:56:50.931Z,1.60
2023-03-30T13:59:22.302Z,1.53
2023-03-30T14:01:54.032Z,3.13
2023-03-30T14:04:22.611Z,1.80
2023-03-30T14:06:52.574Z,2.50
2023-03-30T14:09:24.225Z,1.60
2023-03-30T14:11:54.562Z,1.60
2023-03-30T14:14:28.166Z,1.33
2023-03-30T14:16:57.440Z,1.63
2023-03-30T14:19:27.862Z,1.53
2023-03-30T14:21:59.213Z,1.93
2023-03-30T14:24:34.015Z,1.70
2023-03-30T14:27:07.951Z,1.40
2023-03-30T14:29:45.758Z,1.48
2023-03-30T14:32:17.156Z,1.85
2023-03-30T14:34:51.015Z,1.40
2023-03-30T14:37:21.483Z,2.10
2023-03-30T14:39:55.173Z,1.35
2023-03-30T14:42:26.780Z,1.93
2023-03-30T14:44:58.264Z,2.10
2023-03-30T14:47:28.691Z,1.50
2023-03-30T14:50:00.882Z,2.00
2023-03-30T14:52:33.941Z,1.93
2023-03-30T14:55:09.044Z,1.37
2023-03-30T14:57:40.550Z,1.83
2023-03-30T15:00:18.641Z,1.70
2023-03-30T15:02:51.424Z,1.73
2023-03-30T15:05:20.719Z,1.57
2023-03-30T15:07:50.841Z,1.50
2023-03-30T15:10:28.012Z,1.37
2023-03-30T15:12:58.736Z,1.57
2023-03-30T15:15:31.184Z,2.00
2023-03-30T15:18:00.429Z,1.40
2023-03-30T15:20:31.510Z,1.77
2023-03-30T15:23:01.682Z,2.10
2023-03-30T15:25:35.597Z,2.30
2023-03-30T15:28:08.242Z,2.33
2023-03-30T15:30:39.530Z,1.93
2023-03-30T15:33:08.666Z,1.93
2023-03-30T15:35:39.143Z,1.53
2023-03-30T15:38:17.244Z,2.23
2023-03-30T15:40:50.212Z,1.80
2023-03-30T15:43:21.564Z,1.87
2023-03-30T15:45:53.756Z,2.00
2023-03-30T15:48:27.607Z,2.33
2023-03-30T15:51:05.311Z,1.73
2023-03-30T15:53:37.652Z,1.97
2023-03-30T15:56:13.890Z,1.83
2023-03-30T15:58:43.819Z,2.10
2023-03-30T16:01:15.525Z,2.20
2023-03-30T16:03:52.610Z,2.00
2023-03-30T16:06:21.944Z,2.03
2023-03-30T16:08:50.517Z,2.00
2023-03-30T16:11:20.874Z,1.93
2023-03-30T16:13:50.577Z,1.80
2023-03-30T16:16:19.710Z,2.53
2023-03-30T16:18:48.317Z,3.77
2023-03-30T16:21:18.564Z,2.23
2023-03-30T16:23:47.160Z,2.43
2023-03-30T16:26:16.290Z,2.33
2023-03-30T16:28:46.777Z,2.30
2023-03-30T16:31:19.545Z,2.10
2023-03-30T16:33:48.341Z,3.07
2023-03-30T16:36:18.243Z,2.83
2023-03-30T16:38:48.056Z,3.60
2023-03-30T16:41:19.975Z,3.67
2023-03-30T16:43:50.870Z,3.87
2023-03-30T16:46:21.422Z,3.20
2023-03-30T16:48:50.451Z,2.60
2023-03-30T16:51:20.142Z,2.67
2023-03-30T16:53:48.982Z,2.80
2023-03-30T16:56:20.249Z,2.60
2023-03-30T16:58:50.830Z,3.00
2023-03-30T17:01:19.845Z,3.03
2023-03-30T17:03:48.453Z,3.10
2023-03-30T17:06:17.280Z,3.57
2023-03-30T17:08:46.075Z,3.97
2023-03-30T17:11:14.713Z,4.10
2023-03-30T17:13:44.107Z,5.07
2023-03-30T17:16:16.018Z,4.37
2023-03-30T17:18:45.020Z,5.80
2023-03-30T17:21:16.615Z,5.37
2023-03-30T17:23:48.011Z,5.33
2023-03-30T17:26:16.742Z,5.47
2023-03-30T17:28:45.659Z,4.83
2023-03-30T17:31:18.151Z,6.50
2023-03-30T17:33:47.351Z,9.70
2023-03-30T17:36:19.179Z,17.00
2023-03-30T17:38:48.656Z,18.20
2023-03-30T17:41:19.576Z,7.87
2023-03-30T17:43:52.271Z,7.70
2023-03-30T17:46:22.916Z,4.83
2023-03-30T17:48:52.324Z,3.40
2023-03-30T17:51:20.954Z,3.00
2023-03-30T17:53:49.630Z,4.40
2023-03-30T17:56:18.200Z,4.37
2023-03-30T17:58:46.812Z,4.73
2023-03-30T18:01:16.956Z,4.07
2023-03-30T18:03:47.002Z,4.20
2023-03-30T18:06:15.864Z,5.33
2023-03-30T18:08:44.427Z,6.10
2023-03-30T18:11:13.106Z,12.40
2023-03-30T18:13:41.615Z,55.60
2023-03-30T18:16:13.306Z,29.23
2023-03-30T18:18:42.009Z,21.87
2023-03-30T18:21:12.383Z,11.03
2023-03-30T18:23:40.953Z,27.13
2023-03-30T18:26:12.970Z,43.33
2023-03-30T18:28:44.418Z,9.07
2023-03-30T18:31:13.383Z,49.00
2023-03-30T18:33:41.927Z,79.00
2023-03-30T18:36:14.855Z,53.47
2023-03-30T18:38:44.187Z,14.53
2023-03-30T18:41:13.423Z,10.37
2023-03-30T18:43:41.999Z,7.20
2023-03-30T18:46:13.167Z,5.10
2023-03-30T18:48:41.774Z,5.23
2023-03-30T18:51:13.179Z,5.23
2023-03-30T18:53:41.727Z,6.27
2023-03-30T18:56:13.828Z,7.83
2023-03-30T18:58:43.318Z,6.17
2023-03-30T19:01:13.574Z,8.60
2023-03-30T19:03:42.506Z,9.00
2023-03-30T19:06:16.063Z,7.93
2023-03-30T19:08:44.730Z,6.77
2023-03-30T19:11:16.671Z,8.97
2023-03-30T19:13:47.289Z,9.73
2023-03-30T19:16:18.799Z,9.40
2023-03-30T19:18:49.631Z,9.57
2023-03-30T19:21:21.032Z,9.70
2023-03-30T19:23:50.244Z,10.30
2023-03-30T19:26:18.798Z,9.90
2023-03-30T19:28:47.302Z,10.50
2023-03-30T19:31:16.599Z,9.93
2023-03-30T19:33:45.376Z,11.10
2023-03-30T19:36:13.940Z,10.43
2023-03-30T19:38:46.021Z,9.80
2023-03-30T19:41:16.169Z,9.17
2023-03-30T19:43:45.666Z,9.87
2023-03-30T19:46:17.935Z,10.07
2023-03-30T19:48:46.489Z,8.00
2023-03-30T19:51:15.050Z,8.97
2023-03-30T19:53:47.375Z,7.90
2023-03-30T19:56:16.655Z,8.50
2023-03-30T19:58:45.307Z,8.10
2023-03-30T20:01:13.887Z,8.60
2023-03-30T20:03:42.491Z,8.70
2023-03-30T20:06:12.728Z,9.27
2023-03-30T20:08:41.388Z,8.30
2023-03-30T20:11:12.572Z,9.13
2023-03-30T20:13:45.964Z,7.23
2023-03-30T20:16:20.590Z,7.80
2023-03-30T20:18:54.790Z,8.20
2023-03-30T20:21:25.841Z,9.00
2023-03-30T20:23:56.048Z,8.43
2023-03-30T20:26:26.562Z,8.03
2023-03-30T20:28:55.079Z,7.67
2023-03-30T20:31:23.812Z,7.27
2023-03-30T20:33:53.656Z,7.27
2023-03-30T20:36:23.021Z,7.17
2023-03-30T20:38:51.579Z,7.70
2023-03-30T20:41:21.744Z,6.43
2023-03-30T20:43:57.259Z,7.20
2023-03-30T20:46:36.448Z,5.83
2023-03-30T20:49:08.165Z,6.50
2023-03-30T20:51:39.957Z,6.40
2023-03-30T20:54:10.546Z,6.30
2023-03-30T20:56:39.514Z,5.67
2023-03-30T20:59:09.419Z,5.27
2023-03-30T21:01:41.011Z,5.90
2023-03-30T21:04:10.726Z,5.97
2023-03-30T21:06:39.299Z,7.53
2023-03-30T21:09:09.031Z,6.00
2023-03-30T21:11:39.971Z,6.53
2023-03-30T21:14:12.659Z,17.57
2023-03-30T21:16:42.882Z,7.03
2023-03-30T21:19:11.793Z,5.30
2023-03-30T21:21:42.707Z,5.63
2023-03-30T21:24:12.629Z,5.90
2023-03-30T21:26:41.512Z,6.30
2023-03-30T21:29:11.525Z,6.63
2023-03-30T21:31:40.339Z,6.40
2023-03-30T21:34:11.119Z,6.60
2023-03-30T21:36:39.905Z,7.27
2023-03-30T21:39:08.891Z,6.00
2023-03-30T21:41:38.070Z,6.97
2023-03-30T21:44:06.703Z,6.33
2023-03-30T21:46:36.800Z,6.80
2023-03-30T21:49:05.428Z,5.93
2023-03-30T21:51:33.902Z,6.23
2023-03-30T21:54:02.511Z,6.90
2023-03-30T21:56:32.079Z,7.30
2023-03-30T21:59:01.415Z,6.10
2023-03-30T22:01:30.004Z,5.53
2023-03-30T22:04:00.186Z,5.80
2023-03-30T22:06:29.703Z,6.07
2023-03-30T22:08:58.420Z,5.77
2023-03-30T22:11:27.759Z,6.13
2023-03-30T22:13:56.347Z,92.63
2023-03-30T22:16:28.346Z,48.87
2023-03-30T22:18:57.235Z,66.67
2023-03-30T22:21:34.328Z,8.10
2023-03-30T22:24:06.208Z,11.87
2023-03-30T22:26:35.152Z,6.97
2023-03-30T22:29:03.853Z,6.80
2023-03-30T22:31:33.347Z,4.90
2023-03-30T22:34:01.868Z,5.80
2023-03-30T22:36:32.423Z,6.67
2023-03-30T22:39:02.678Z,5.37
2023-03-30T22:41:33.447Z,5.53
2023-03-30T22:44:01.923Z,3.97
2023-03-30T22:46:30.584Z,4.53
2023-03-30T22:49:00.259Z,4.60
2023-03-30T22:51:28.853Z,4.77
2023-03-30T22:53:59.734Z,3.57
2023-03-30T22:56:29.896Z,4.10
2023-03-30T22:59:00.104Z,3.63
2023-03-30T23:01:32.704Z,4.23
2023-03-30T23:04:01.853Z,4.97
2023-03-30T23:06:31.240Z,4.40
2023-03-30T23:09:02.838Z,5.07
2023-03-30T23:11:32.534Z,4.00
2023-03-30T23:14:05.459Z,3.97
2023-03-30T23:16:36.104Z,4.40
2023-03-30T23:19:05.626Z,3.90
2023-03-30T23:21:35.910Z,3.67
2023-03-30T23:24:08.196Z,3.47
2023-03-30T23:26:36.861Z,3.60
2023-03-30T23:29:07.373Z,3.80
2023-03-30T23:31:36.173Z,4.17
2023-03-30T23:34:05.260Z,4.37
2023-03-30T23:36:35.004Z,3.63
2023-03-30T23:39:03.644Z,3.43
2023-03-30T23:41:33.595Z,3.93
2023-03-30T23:44:02.325Z,3.60
2023-03-30T23:46:31.003Z,3.40
2023-03-30T23:48:59.848Z,2.80
2023-03-30T23:51:28.561Z,2.83
2023-03-30T23:54:00.256Z,2.67
2023-03-30T23:56:30.093Z,2.70
2023-03-30T23:59:00.428Z,2.87
